sensor_id;sensor_type;location;lat;lon;timestamp;temperature;humidity
25280;DHT22;13225;47.804;12.116;2023-07-29T00:00:58;17.70;99.90
25280;DHT22;13225;47.804;12.116;2023-07-29T00:03:25;17.70;99.90
25280;DHT22;13225;47.804;12.116;2023-07-29T00:05:51;17.70;99.90
25280;DHT22;13225;47.804;12.116;2023-07-29T00:08:16;17.70;99.90
25280;DHT22;13225;47.804;12.116;2023-07-29T00:10:42;17.70;99.90
25280;DHT22;13225;47.804;12.116;2023-07-29T00:13:07;17.80;99.90
25280;DHT22;13225;47.804;12.116;2023-07-29T00:15:33;17.80;99.90
25280;DHT22;13225;47.804;12.116;2023-07-29T00:17:59;17.80;99.90
25280;DHT22;13225;47.804;12.116;2023-07-29T00:20:24;17.80;99.90
25280;DHT22;13225;47.804;12.116;2023-07-29T00:22:50;17.70;99.90
25280;DHT22;13225;47.804;12.116;2023-07-29T00:25:18;17.70;99.90
25280;DHT22;13225;47.804;12.116;2023-07-29T00:27:43;17.80;99.90
25280;DHT22;13225;47.804;12.116;2023-07-29T00:30:09;17.70;99.90
25280;DHT22;13225;47.804;12.116;2023-07-29T00:32:35;17.70;99.90
25280;DHT22;13225;47.804;12.116;2023-07-29T00:35:01;17.70;99.90
25280;DHT22;13225;47.804;12.116;2023-07-29T00:37:28;17.70;99.90
25280;DHT22;13225;47.804;12.116;2023-07-29T00:39:53;17.70;99.90
25280;DHT22;13225;47.804;12.116;2023-07-29T00:42:19;17.70;99.90
25280;DHT22;13225;47.804;12.116;2023-07-29T00:44:45;17.70;99.90
25280;DHT22;13225;47.804;12.116;2023-07-29T00:47:11;17.70;99.90
25280;DHT22;13225;47.804;12.116;2023-07-29T00:49:38;17.70;99.90
25280;DHT22;13225;47.804;12.116;2023-07-29T00:52:04;17.70;99.90
25280;DHT22;13225;47.804;12.116;2023-07-29T00:54:29;17.70;99.90
25280;DHT22;13225;47.804;12.116;2023-07-29T00:56:55;17.80;99.90
25280;DHT22;13225;47.804;12.116;2023-07-29T00:59:21;17.80;99.90
25280;DHT22;13225;47.804;12.116;2023-07-29T01:01:46;17.80;99.90
25280;DHT22;13225;47.804;12.116;2023-07-29T01:04:12;17.80;99.90
25280;DHT22;13225;47.804;12.116;2023-07-29T01:17:25;17.90;99.90
25280;DHT22;13225;47.804;12.116;2023-07-29T01:20:09;17.90;99.90
25280;DHT22;13225;47.804;12.116;2023-07-29T01:22:36;17.90;99.90
25280;DHT22;13225;47.804;12.116;2023-07-29T01:25:03;17.80;99.90
25280;DHT22;13225;47.804;12.116;2023-07-29T01:27:29;17.80;99.90
25280;DHT22;13225;47.804;12.116;2023-07-29T01:29:55;17.80;99.90
25280;DHT22;13225;47.804;12.116;2023-07-29T01:32:40;17.90;99.90
25280;DHT22;13225;47.804;12.116;2023-07-29T01:35:10;17.90;99.90
25280;DHT22;13225;47.804;12.116;2023-07-29T01:37:38;17.80;99.90
25280;DHT22;13225;47.804;12.116;2023-07-29T01:40:07;17.90;99.90
25280;DHT22;13225;47.804;12.116;2023-07-29T01:42:34;17.90;99.90
25280;DHT22;13225;47.804;12.116;2023-07-29T01:45:00;17.90;99.90
25280;DHT22;13225;47.804;12.116;2023-07-29T01:47:25;17.90;99.90
25280;DHT22;13225;47.804;12.116;2023-07-29T01:49:51;17.90;99.90
25280;DHT22;13225;47.804;12.116;2023-07-29T01:52:17;17.80;99.90
25280;DHT22;13225;47.804;12.116;2023-07-29T01:54:42;17.80;99.90
25280;DHT22;13225;47.804;12.116;2023-07-29T01:57:08;17.70;99.90
25280;DHT22;13225;47.804;12.116;2023-07-29T01:59:33;17.70;99.90
25280;DHT22;13225;47.804;12.116;2023-07-29T02:01:59;17.60;99.90
25280;DHT22;13225;47.804;12.116;2023-07-29T02:04:24;17.60;99.90
25280;DHT22;13225;47.804;12.116;2023-07-29T02:06:50;17.60;99.90
25280;DHT22;13225;47.804;12.116;2023-07-29T02:09:15;17.60;99.90
25280;DHT22;13225;47.804;12.116;2023-07-29T02:11:41;17.60;99.90
25280;DHT22;13225;47.804;12.116;2023-07-29T02:14:07;17.60;99.90
25280;DHT22;13225;47.804;12.116;2023-07-29T02:16:32;17.60;99.90
25280;DHT22;13225;47.804;12.116;2023-07-29T02:18:59;17.60;99.90
25280;DHT22;13225;47.804;12.116;2023-07-29T02:21:25;17.60;99.90
25280;DHT22;13225;47.804;12.116;2023-07-29T02:23:51;17.50;99.90
25280;DHT22;13225;47.804;12.116;2023-07-29T02:26:17;17.50;99.90
25280;DHT22;13225;47.804;12.116;2023-07-29T02:28:42;17.40;99.90
25280;DHT22;13225;47.804;12.116;2023-07-29T02:33:39;17.40;99.90
25280;DHT22;13225;47.804;12.116;2023-07-29T02:36:05;17.40;99.90
25280;DHT22;13225;47.804;12.116;2023-07-29T02:38:30;17.40;99.90
25280;DHT22;13225;47.804;12.116;2023-07-29T02:40:56;17.40;99.90
25280;DHT22;13225;47.804;12.116;2023-07-29T02:43:21;17.40;99.90
25280;DHT22;13225;47.804;12.116;2023-07-29T02:45:47;17.40;99.90
25280;DHT22;13225;47.804;12.116;2023-07-29T02:48:12;17.40;99.90
25280;DHT22;13225;47.804;12.116;2023-07-29T02:50:38;17.40;99.90
25280;DHT22;13225;47.804;12.116;2023-07-29T02:53:03;17.40;99.90
25280;DHT22;13225;47.804;12.116;2023-07-29T02:55:29;17.40;99.90
25280;DHT22;13225;47.804;12.116;2023-07-29T02:57:54;17.30;99.90
25280;DHT22;13225;47.804;12.116;2023-07-29T03:00:20;17.20;99.90
25280;DHT22;13225;47.804;12.116;2023-07-29T03:02:45;17.20;99.90
25280;DHT22;13225;47.804;12.116;2023-07-29T03:05:11;17.20;99.90
25280;DHT22;13225;47.804;12.116;2023-07-29T03:07:37;17.20;99.90
25280;DHT22;13225;47.804;12.116;2023-07-29T03:10:02;17.10;99.90
25280;DHT22;13225;47.804;12.116;2023-07-29T03:12:28;17.10;99.90
25280;DHT22;13225;47.804;12.116;2023-07-29T03:14:53;17.10;99.90
25280;DHT22;13225;47.804;12.116;2023-07-29T03:17:19;17.00;99.90
25280;DHT22;13225;47.804;12.116;2023-07-29T03:19:44;17.00;99.90
25280;DHT22;13225;47.804;12.116;2023-07-29T03:22:10;17.00;99.90
25280;DHT22;13225;47.804;12.116;2023-07-29T03:24:35;17.00;99.90
25280;DHT22;13225;47.804;12.116;2023-07-29T03:27:01;17.00;99.90
25280;DHT22;13225;47.804;12.116;2023-07-29T03:29:27;17.00;99.90
25280;DHT22;13225;47.804;12.116;2023-07-29T03:31:52;17.10;99.90
25280;DHT22;13225;47.804;12.116;2023-07-29T03:34:18;17.10;99.90
25280;DHT22;13225;47.804;12.116;2023-07-29T03:36:43;17.10;99.90
25280;DHT22;13225;47.804;12.116;2023-07-29T03:39:11;17.10;99.90
25280;DHT22;13225;47.804;12.116;2023-07-29T03:41:37;17.20;99.90
25280;DHT22;13225;47.804;12.116;2023-07-29T03:44:02;17.20;99.90
25280;DHT22;13225;47.804;12.116;2023-07-29T03:46:28;17.20;99.90
25280;DHT22;13225;47.804;12.116;2023-07-29T03:48:54;17.20;99.90
25280;DHT22;13225;47.804;12.116;2023-07-29T03:51:19;17.20;99.90
25280;DHT22;13225;47.804;12.116;2023-07-29T03:53:46;17.30;99.90
25280;DHT22;13225;47.804;12.116;2023-07-29T03:56:11;17.30;99.90
25280;DHT22;13225;47.804;12.116;2023-07-29T03:58:37;17.30;99.90
25280;DHT22;13225;47.804;12.116;2023-07-29T04:01:02;17.40;99.90
25280;DHT22;13225;47.804;12.116;2023-07-29T04:03:29;17.40;99.90
25280;DHT22;13225;47.804;12.116;2023-07-29T04:05:55;17.50;99.90
25280;DHT22;13225;47.804;12.116;2023-07-29T04:08:21;17.50;99.90
25280;DHT22;13225;47.804;12.116;2023-07-29T04:10:46;17.60;99.90
25280;DHT22;13225;47.804;12.116;2023-07-29T04:13:12;17.70;99.90
25280;DHT22;13225;47.804;12.116;2023-07-29T04:15:37;17.90;99.90
25280;DHT22;13225;47.804;12.116;2023-07-29T04:18:03;18.20;99.90
25280;DHT22;13225;47.804;12.116;2023-07-29T04:20:29;18.40;99.90
25280;DHT22;13225;47.804;12.116;2023-07-29T04:22:54;18.70;99.90
25280;DHT22;13225;47.804;12.116;2023-07-29T04:25:20;18.60;99.90
25280;DHT22;13225;47.804;12.116;2023-07-29T04:27:45;18.40;99.90
25280;DHT22;13225;47.804;12.116;2023-07-29T04:30:11;18.10;99.90
25280;DHT22;13225;47.804;12.116;2023-07-29T04:32:36;17.90;99.90
25280;DHT22;13225;47.804;12.116;2023-07-29T04:35:02;17.80;99.90
25280;DHT22;13225;47.804;12.116;2023-07-29T04:37:28;17.70;99.90
25280;DHT22;13225;47.804;12.116;2023-07-29T04:39:53;17.70;99.90
25280;DHT22;13225;47.804;12.116;2023-07-29T04:42:19;17.80;99.90
25280;DHT22;13225;47.804;12.116;2023-07-29T04:44:44;17.90;99.90
25280;DHT22;13225;47.804;12.116;2023-07-29T04:47:10;17.90;99.90
25280;DHT22;13225;47.804;12.116;2023-07-29T04:49:35;18.00;99.90
25280;DHT22;13225;47.804;12.116;2023-07-29T04:52:01;18.00;99.90
25280;DHT22;13225;47.804;12.116;2023-07-29T04:54:27;18.00;99.90
25280;DHT22;13225;47.804;12.116;2023-07-29T04:56:52;18.10;99.90
25280;DHT22;13225;47.804;12.116;2023-07-29T04:59:18;18.10;99.90
25280;DHT22;13225;47.804;12.116;2023-07-29T05:01:43;18.10;99.90
25280;DHT22;13225;47.804;12.116;2023-07-29T05:04:09;18.10;99.90
25280;DHT22;13225;47.804;12.116;2023-07-29T05:06:34;18.20;99.90
25280;DHT22;13225;47.804;12.116;2023-07-29T05:09:15;18.10;99.90
25280;DHT22;13225;47.804;12.116;2023-07-29T05:11:42;18.10;99.90
25280;DHT22;13225;47.804;12.116;2023-07-29T05:14:09;18.10;99.90
25280;DHT22;13225;47.804;12.116;2023-07-29T05:16:35;18.10;99.90
25280;DHT22;13225;47.804;12.116;2023-07-29T05:19:00;18.10;99.90
25280;DHT22;13225;47.804;12.116;2023-07-29T05:21:26;18.20;99.90
25280;DHT22;13225;47.804;12.116;2023-07-29T05:23:52;18.70;99.90
25280;DHT22;13225;47.804;12.116;2023-07-29T05:26:17;19.20;99.90
25280;DHT22;13225;47.804;12.116;2023-07-29T05:28:43;19.30;99.90
25280;DHT22;13225;47.804;12.116;2023-07-29T05:31:08;19.40;99.90
25280;DHT22;13225;47.804;12.116;2023-07-29T05:33:34;18.90;99.90
25280;DHT22;13225;47.804;12.116;2023-07-29T05:36:01;18.80;99.90
25280;DHT22;13225;47.804;12.116;2023-07-29T05:38:27;18.80;99.90
25280;DHT22;13225;47.804;12.116;2023-07-29T05:40:53;18.90;99.90
25280;DHT22;13225;47.804;12.116;2023-07-29T05:43:18;18.90;99.90
25280;DHT22;13225;47.804;12.116;2023-07-29T05:45:44;19.00;99.90
25280;DHT22;13225;47.804;12.116;2023-07-29T05:48:09;18.90;99.90
25280;DHT22;13225;47.804;12.116;2023-07-29T05:50:35;18.90;99.90
25280;DHT22;13225;47.804;12.116;2023-07-29T05:53:00;18.70;99.90
25280;DHT22;13225;47.804;12.116;2023-07-29T05:55:26;18.60;99.90
25280;DHT22;13225;47.804;12.116;2023-07-29T05:57:52;18.60;99.90
25280;DHT22;13225;47.804;12.116;2023-07-29T06:00:17;18.70;99.90
25280;DHT22;13225;47.804;12.116;2023-07-29T06:02:43;18.70;99.90
25280;DHT22;13225;47.804;12.116;2023-07-29T06:05:08;18.60;99.90
25280;DHT22;13225;47.804;12.116;2023-07-29T06:07:34;18.60;99.90
25280;DHT22;13225;47.804;12.116;2023-07-29T06:10:00;18.70;99.90
25280;DHT22;13225;47.804;12.116;2023-07-29T06:12:26;18.90;99.90
25280;DHT22;13225;47.804;12.116;2023-07-29T06:14:52;19.10;99.90
25280;DHT22;13225;47.804;12.116;2023-07-29T06:17:18;19.30;99.90
25280;DHT22;13225;47.804;12.116;2023-07-29T06:19:43;19.40;99.90
25280;DHT22;13225;47.804;12.116;2023-07-29T06:22:09;19.50;99.90
25280;DHT22;13225;47.804;12.116;2023-07-29T06:24:35;19.60;99.90
25280;DHT22;13225;47.804;12.116;2023-07-29T06:27:01;19.70;99.90
25280;DHT22;13225;47.804;12.116;2023-07-29T06:29:26;19.80;99.90
25280;DHT22;13225;47.804;12.116;2023-07-29T06:31:52;19.90;99.90
25280;DHT22;13225;47.804;12.116;2023-07-29T06:34:18;19.80;99.90
25280;DHT22;13225;47.804;12.116;2023-07-29T06:36:44;19.70;99.90
25280;DHT22;13225;47.804;12.116;2023-07-29T06:39:09;19.60;99.90
25280;DHT22;13225;47.804;12.116;2023-07-29T06:41:35;19.30;99.90
25280;DHT22;13225;47.804;12.116;2023-07-29T06:44:01;19.00;99.90
25280;DHT22;13225;47.804;12.116;2023-07-29T06:46:26;18.80;99.90
25280;DHT22;13225;47.804;12.116;2023-07-29T06:48:52;18.70;99.90
25280;DHT22;13225;47.804;12.116;2023-07-29T06:51:17;18.50;99.90
25280;DHT22;13225;47.804;12.116;2023-07-29T06:53:43;18.40;99.90
25280;DHT22;13225;47.804;12.116;2023-07-29T06:56:08;18.50;99.90
25280;DHT22;13225;47.804;12.116;2023-07-29T06:58:34;18.40;99.90
25280;DHT22;13225;47.804;12.116;2023-07-29T07:01:00;18.40;99.90
25280;DHT22;13225;47.804;12.116;2023-07-29T07:03:26;18.50;99.90
25280;DHT22;13225;47.804;12.116;2023-07-29T07:05:51;18.50;99.90
25280;DHT22;13225;47.804;12.116;2023-07-29T07:08:17;18.50;99.90
25280;DHT22;13225;47.804;12.116;2023-07-29T07:10:42;18.50;99.90
25280;DHT22;13225;47.804;12.116;2023-07-29T07:13:08;18.50;99.90
25280;DHT22;13225;47.804;12.116;2023-07-29T07:15:33;18.30;99.90
25280;DHT22;13225;47.804;12.116;2023-07-29T07:17:59;18.30;99.90
25280;DHT22;13225;47.804;12.116;2023-07-29T07:20:24;18.40;99.90
25280;DHT22;13225;47.804;12.116;2023-07-29T07:22:50;18.30;99.90
25280;DHT22;13225;47.804;12.116;2023-07-29T07:25:16;18.30;99.90
25280;DHT22;13225;47.804;12.116;2023-07-29T07:27:41;18.30;99.90
25280;DHT22;13225;47.804;12.116;2023-07-29T07:30:07;18.30;99.90
25280;DHT22;13225;47.804;12.116;2023-07-29T07:32:33;18.30;99.90
25280;DHT22;13225;47.804;12.116;2023-07-29T07:34:58;18.20;99.90
25280;DHT22;13225;47.804;12.116;2023-07-29T07:37:24;18.30;99.90
25280;DHT22;13225;47.804;12.116;2023-07-29T07:39:49;18.20;99.90
25280;DHT22;13225;47.804;12.116;2023-07-29T07:42:15;18.20;99.90
25280;DHT22;13225;47.804;12.116;2023-07-29T07:44:40;18.20;99.90
25280;DHT22;13225;47.804;12.116;2023-07-29T07:47:06;18.00;99.90
25280;DHT22;13225;47.804;12.116;2023-07-29T07:49:32;18.10;99.90
25280;DHT22;13225;47.804;12.116;2023-07-29T07:51:57;18.10;99.90
25280;DHT22;13225;47.804;12.116;2023-07-29T07:54:23;18.00;99.90
25280;DHT22;13225;47.804;12.116;2023-07-29T07:56:48;18.10;99.90
25280;DHT22;13225;47.804;12.116;2023-07-29T07:59:14;18.10;99.90
25280;DHT22;13225;47.804;12.116;2023-07-29T08:01:39;18.20;99.90
25280;DHT22;13225;47.804;12.116;2023-07-29T08:04:06;18.40;99.90
25280;DHT22;13225;47.804;12.116;2023-07-29T08:06:32;18.40;99.90
25280;DHT22;13225;47.804;12.116;2023-07-29T08:08:58;18.50;99.90
25280;DHT22;13225;47.804;12.116;2023-07-29T08:11:23;18.70;99.90
25280;DHT22;13225;47.804;12.116;2023-07-29T08:13:49;19.00;99.90
25280;DHT22;13225;47.804;12.116;2023-07-29T08:16:15;19.20;99.90
25280;DHT22;13225;47.804;12.116;2023-07-29T08:18:40;19.60;99.90
25280;DHT22;13225;47.804;12.116;2023-07-29T08:21:06;19.50;99.90
25280;DHT22;13225;47.804;12.116;2023-07-29T08:23:35;19.40;99.90
25280;DHT22;13225;47.804;12.116;2023-07-29T08:26:05;19.40;99.90
25280;DHT22;13225;47.804;12.116;2023-07-29T08:28:32;19.70;99.90
25280;DHT22;13225;47.804;12.116;2023-07-29T08:30:58;19.90;99.90
25280;DHT22;13225;47.804;12.116;2023-07-29T08:33:24;20.00;99.90
25280;DHT22;13225;47.804;12.116;2023-07-29T08:35:50;20.00;99.90
25280;DHT22;13225;47.804;12.116;2023-07-29T08:38:15;20.10;99.90
25280;DHT22;13225;47.804;12.116;2023-07-29T08:40:45;20.00;99.90
25280;DHT22;13225;47.804;12.116;2023-07-29T08:43:17;19.70;99.90
25280;DHT22;13225;47.804;12.116;2023-07-29T08:45:44;19.60;99.90
25280;DHT22;13225;47.804;12.116;2023-07-29T08:48:10;19.70;99.90
25280;DHT22;13225;47.804;12.116;2023-07-29T08:50:37;19.90;99.90
25280;DHT22;13225;47.804;12.116;2023-07-29T08:53:04;20.30;99.90
25280;DHT22;13225;47.804;12.116;2023-07-29T08:55:31;20.30;99.90
25280;DHT22;13225;47.804;12.116;2023-07-29T08:58:00;20.60;99.90
25280;DHT22;13225;47.804;12.116;2023-07-29T09:00:27;20.80;99.90
25280;DHT22;13225;47.804;12.116;2023-07-29T09:02:53;20.70;99.90
25280;DHT22;13225;47.804;12.116;2023-07-29T09:05:21;20.70;99.90
25280;DHT22;13225;47.804;12.116;2023-07-29T09:07:48;20.40;99.90
25280;DHT22;13225;47.804;12.116;2023-07-29T09:10:14;20.30;99.90
25280;DHT22;13225;47.804;12.116;2023-07-29T09:12:40;20.40;99.90
25280;DHT22;13225;47.804;12.116;2023-07-29T09:15:07;20.20;99.90
25280;DHT22;13225;47.804;12.116;2023-07-29T09:17:33;20.20;99.90
25280;DHT22;13225;47.804;12.116;2023-07-29T09:19:59;20.20;99.90
25280;DHT22;13225;47.804;12.116;2023-07-29T09:22:27;20.10;99.90
25280;DHT22;13225;47.804;12.116;2023-07-29T09:24:53;20.20;99.90
25280;DHT22;13225;47.804;12.116;2023-07-29T09:27:28;20.20;99.90
25280;DHT22;13225;47.804;12.116;2023-07-29T09:29:57;20.20;99.90
25280;DHT22;13225;47.804;12.116;2023-07-29T09:32:24;20.40;99.90
25280;DHT22;13225;47.804;12.116;2023-07-29T09:34:50;20.50;99.90
25280;DHT22;13225;47.804;12.116;2023-07-29T09:37:26;20.70;99.90
25280;DHT22;13225;47.804;12.116;2023-07-29T09:39:51;20.80;99.90
25280;DHT22;13225;47.804;12.116;2023-07-29T09:42:19;20.80;99.90
25280;DHT22;13225;47.804;12.116;2023-07-29T09:44:45;20.80;99.90
25280;DHT22;13225;47.804;12.116;2023-07-29T09:47:19;20.50;99.90
25280;DHT22;13225;47.804;12.116;2023-07-29T09:49:45;20.60;99.90
25280;DHT22;13225;47.804;12.116;2023-07-29T09:52:11;20.70;99.90
25280;DHT22;13225;47.804;12.116;2023-07-29T09:54:37;20.80;99.90
25280;DHT22;13225;47.804;12.116;2023-07-29T09:57:03;21.10;99.90
25280;DHT22;13225;47.804;12.116;2023-07-29T09:59:34;21.20;99.90
25280;DHT22;13225;47.804;12.116;2023-07-29T10:02:00;21.20;99.90
25280;DHT22;13225;47.804;12.116;2023-07-29T10:04:26;21.30;99.90
25280;DHT22;13225;47.804;12.116;2023-07-29T10:06:52;21.40;99.90
25280;DHT22;13225;47.804;12.116;2023-07-29T10:09:19;21.70;99.90
25280;DHT22;13225;47.804;12.116;2023-07-29T10:11:45;21.90;99.90
25280;DHT22;13225;47.804;12.116;2023-07-29T10:14:11;22.20;99.90
25280;DHT22;13225;47.804;12.116;2023-07-29T10:16:37;22.40;99.90
25280;DHT22;13225;47.804;12.116;2023-07-29T10:19:04;22.60;99.90
25280;DHT22;13225;47.804;12.116;2023-07-29T10:21:31;22.70;99.90
25280;DHT22;13225;47.804;12.116;2023-07-29T10:24:01;22.90;99.90
25280;DHT22;13225;47.804;12.116;2023-07-29T10:26:28;22.90;99.90
25280;DHT22;13225;47.804;12.116;2023-07-29T10:28:59;23.10;99.90
25280;DHT22;13225;47.804;12.116;2023-07-29T10:31:31;22.80;99.90
25280;DHT22;13225;47.804;12.116;2023-07-29T10:33:57;22.70;99.90
25280;DHT22;13225;47.804;12.116;2023-07-29T10:36:23;22.50;99.90
25280;DHT22;13225;47.804;12.116;2023-07-29T10:38:49;22.70;99.90
25280;DHT22;13225;47.804;12.116;2023-07-29T10:41:15;22.60;99.90
25280;DHT22;13225;47.804;12.116;2023-07-29T10:43:40;22.50;99.90
25280;DHT22;13225;47.804;12.116;2023-07-29T10:46:19;22.40;99.90
25280;DHT22;13225;47.804;12.116;2023-07-29T10:51:30;22.50;99.90
25280;DHT22;13225;47.804;12.116;2023-07-29T10:53:57;22.90;99.90
25280;DHT22;13225;47.804;12.116;2023-07-29T10:56:28;22.90;99.90
25280;DHT22;13225;47.804;12.116;2023-07-29T11:01:51;23.00;99.90
25280;DHT22;13225;47.804;12.116;2023-07-29T11:17:41;23.90;99.90
25280;DHT22;13225;47.804;12.116;2023-07-29T11:20:07;24.10;99.90
25280;DHT22;13225;47.804;12.116;2023-07-29T11:22:33;24.20;99.90
25280;DHT22;13225;47.804;12.116;2023-07-29T11:24:59;24.50;99.90
25280;DHT22;13225;47.804;12.116;2023-07-29T11:27:24;24.70;99.90
25280;DHT22;13225;47.804;12.116;2023-07-29T11:29:50;25.30;99.90
25280;DHT22;13225;47.804;12.116;2023-07-29T11:32:16;25.70;99.90
25280;DHT22;13225;47.804;12.116;2023-07-29T11:34:42;26.00;99.90
25280;DHT22;13225;47.804;12.116;2023-07-29T11:37:11;26.60;99.90
25280;DHT22;13225;47.804;12.116;2023-07-29T11:39:46;26.70;99.90
25280;DHT22;13225;47.804;12.116;2023-07-29T11:42:12;26.70;99.90
25280;DHT22;13225;47.804;12.116;2023-07-29T11:44:38;26.90;99.90
25280;DHT22;13225;47.804;12.116;2023-07-29T11:47:08;26.60;99.90
25280;DHT22;13225;47.804;12.116;2023-07-29T11:49:34;26.50;99.90
25280;DHT22;13225;47.804;12.116;2023-07-29T11:52:00;26.60;99.90
25280;DHT22;13225;47.804;12.116;2023-07-29T11:54:26;26.50;99.90
25280;DHT22;13225;47.804;12.116;2023-07-29T11:56:52;26.30;99.90
25280;DHT22;13225;47.804;12.116;2023-07-29T11:59:17;26.00;99.90
25280;DHT22;13225;47.804;12.116;2023-07-29T12:01:43;25.80;99.90
25280;DHT22;13225;47.804;12.116;2023-07-29T12:04:09;25.80;99.90
25280;DHT22;13225;47.804;12.116;2023-07-29T12:06:35;25.90;99.90
25280;DHT22;13225;47.804;12.116;2023-07-29T12:09:01;25.60;99.90
25280;DHT22;13225;47.804;12.116;2023-07-29T12:11:26;25.60;99.90
25280;DHT22;13225;47.804;12.116;2023-07-29T12:13:53;25.60;99.90
25280;DHT22;13225;47.804;12.116;2023-07-29T12:16:19;25.60;99.90
25280;DHT22;13225;47.804;12.116;2023-07-29T12:18:45;26.10;99.90
25280;DHT22;13225;47.804;12.116;2023-07-29T12:21:10;26.50;99.90
25280;DHT22;13225;47.804;12.116;2023-07-29T12:23:36;26.90;99.90
25280;DHT22;13225;47.804;12.116;2023-07-29T12:26:02;26.60;99.90
25280;DHT22;13225;47.804;12.116;2023-07-29T12:28:28;27.20;99.90
25280;DHT22;13225;47.804;12.116;2023-07-29T12:30:57;27.80;99.90
25280;DHT22;13225;47.804;12.116;2023-07-29T12:33:30;27.40;99.90
25280;DHT22;13225;47.804;12.116;2023-07-29T12:35:56;27.70;99.90
25280;DHT22;13225;47.804;12.116;2023-07-29T12:38:22;27.50;99.90
25280;DHT22;13225;47.804;12.116;2023-07-29T12:40:47;28.40;99.90
25280;DHT22;13225;47.804;12.116;2023-07-29T12:43:13;28.30;99.90
25280;DHT22;13225;47.804;12.116;2023-07-29T12:45:39;28.60;99.90
25280;DHT22;13225;47.804;12.116;2023-07-29T12:48:08;29.00;99.90
25280;DHT22;13225;47.804;12.116;2023-07-29T12:50:34;29.80;99.90
25280;DHT22;13225;47.804;12.116;2023-07-29T12:52:59;29.30;99.90
25280;DHT22;13225;47.804;12.116;2023-07-29T12:55:25;29.30;99.90
25280;DHT22;13225;47.804;12.116;2023-07-29T12:57:50;29.70;99.90
25280;DHT22;13225;47.804;12.116;2023-07-29T13:00:16;30.10;99.90
25280;DHT22;13225;47.804;12.116;2023-07-29T13:02:42;30.10;99.90
25280;DHT22;13225;47.804;12.116;2023-07-29T13:05:10;30.20;99.90
25280;DHT22;13225;47.804;12.116;2023-07-29T13:07:39;30.30;99.90
25280;DHT22;13225;47.804;12.116;2023-07-29T13:10:05;30.30;99.90
25280;DHT22;13225;47.804;12.116;2023-07-29T13:12:31;31.30;99.90
25280;DHT22;13225;47.804;12.116;2023-07-29T13:14:57;31.10;99.90
25280;DHT22;13225;47.804;12.116;2023-07-29T13:17:22;31.80;99.90
25280;DHT22;13225;47.804;12.116;2023-07-29T13:19:48;31.20;99.90
25280;DHT22;13225;47.804;12.116;2023-07-29T13:22:14;31.10;99.90
25280;DHT22;13225;47.804;12.116;2023-07-29T13:24:40;31.50;99.90
25280;DHT22;13225;47.804;12.116;2023-07-29T13:27:05;31.80;99.90
25280;DHT22;13225;47.804;12.116;2023-07-29T13:29:31;31.10;99.90
25280;DHT22;13225;47.804;12.116;2023-07-29T13:31:56;30.60;99.90
25280;DHT22;13225;47.804;12.116;2023-07-29T13:34:22;30.20;99.90
25280;DHT22;13225;47.804;12.116;2023-07-29T13:36:47;30.50;99.90
25280;DHT22;13225;47.804;12.116;2023-07-29T13:39:13;31.50;99.90
25280;DHT22;13225;47.804;12.116;2023-07-29T13:41:39;32.50;99.90
25280;DHT22;13225;47.804;12.116;2023-07-29T13:44:04;32.70;99.90
25280;DHT22;13225;47.804;12.116;2023-07-29T13:46:30;31.80;99.90
25280;DHT22;13225;47.804;12.116;2023-07-29T13:48:55;30.70;99.90
25280;DHT22;13225;47.804;12.116;2023-07-29T13:51:21;29.90;99.90
25280;DHT22;13225;47.804;12.116;2023-07-29T13:53:47;29.90;99.90
25280;DHT22;13225;47.804;12.116;2023-07-29T13:56:12;30.50;99.90
25280;DHT22;13225;47.804;12.116;2023-07-29T13:58:38;31.10;99.90
25280;DHT22;13225;47.804;12.116;2023-07-29T14:01:03;31.40;99.90
25280;DHT22;13225;47.804;12.116;2023-07-29T14:03:29;31.60;99.90
25280;DHT22;13225;47.804;12.116;2023-07-29T14:05:54;31.10;99.90
25280;DHT22;13225;47.804;12.116;2023-07-29T14:08:20;29.80;99.90
25280;DHT22;13225;47.804;12.116;2023-07-29T14:10:45;28.60;99.90
25280;DHT22;13225;47.804;12.116;2023-07-29T14:13:11;27.80;99.90
25280;DHT22;13225;47.804;12.116;2023-07-29T14:15:37;27.00;99.90
25280;DHT22;13225;47.804;12.116;2023-07-29T14:18:02;26.40;99.90
25280;DHT22;13225;47.804;12.116;2023-07-29T14:20:28;25.90;99.90
25280;DHT22;13225;47.804;12.116;2023-07-29T14:22:53;25.30;99.90
25280;DHT22;13225;47.804;12.116;2023-07-29T14:25:19;24.80;99.90
25280;DHT22;13225;47.804;12.116;2023-07-29T14:27:45;24.40;99.90
25280;DHT22;13225;47.804;12.116;2023-07-29T14:30:10;24.10;99.90
25280;DHT22;13225;47.804;12.116;2023-07-29T14:32:36;23.70;99.90
25280;DHT22;13225;47.804;12.116;2023-07-29T14:35:03;23.40;99.90
25280;DHT22;13225;47.804;12.116;2023-07-29T14:37:30;23.30;99.90
25280;DHT22;13225;47.804;12.116;2023-07-29T14:39:59;23.30;99.90
25280;DHT22;13225;47.804;12.116;2023-07-29T14:42:26;23.30;99.90
25280;DHT22;13225;47.804;12.116;2023-07-29T14:44:51;23.30;99.90
25280;DHT22;13225;47.804;12.116;2023-07-29T14:47:17;23.20;99.90
25280;DHT22;13225;47.804;12.116;2023-07-29T14:49:44;23.20;99.90
25280;DHT22;13225;47.804;12.116;2023-07-29T14:52:10;23.20;99.90
25280;DHT22;13225;47.804;12.116;2023-07-29T14:54:35;23.10;99.90
25280;DHT22;13225;47.804;12.116;2023-07-29T14:57:01;23.00;99.90
25280;DHT22;13225;47.804;12.116;2023-07-29T15:00:23;22.90;99.90
25280;DHT22;13225;47.804;12.116;2023-07-29T15:02:48;22.80;99.90
25280;DHT22;13225;47.804;12.116;2023-07-29T15:05:14;22.70;99.90
25280;DHT22;13225;47.804;12.116;2023-07-29T15:07:39;22.50;99.90
25280;DHT22;13225;47.804;12.116;2023-07-29T15:10:05;22.40;99.90
25280;DHT22;13225;47.804;12.116;2023-07-29T15:12:31;22.20;99.90
25280;DHT22;13225;47.804;12.116;2023-07-29T15:14:57;22.10;99.90
25280;DHT22;13225;47.804;12.116;2023-07-29T15:17:22;21.90;99.90
25280;DHT22;13225;47.804;12.116;2023-07-29T15:19:48;21.70;99.90
25280;DHT22;13225;47.804;12.116;2023-07-29T15:22:16;21.20;99.90
25280;DHT22;13225;47.804;12.116;2023-07-29T15:24:42;20.90;99.90
25280;DHT22;13225;47.804;12.116;2023-07-29T15:27:11;20.80;99.90
25280;DHT22;13225;47.804;12.116;2023-07-29T15:29:37;20.70;99.90
25280;DHT22;13225;47.804;12.116;2023-07-29T15:32:03;20.60;99.90
25280;DHT22;13225;47.804;12.116;2023-07-29T15:34:29;20.60;99.90
25280;DHT22;13225;47.804;12.116;2023-07-29T15:37:01;20.80;99.90
25280;DHT22;13225;47.804;12.116;2023-07-29T15:39:28;20.90;99.90
25280;DHT22;13225;47.804;12.116;2023-07-29T15:41:53;20.90;99.90